sensor_id;sensor_type;location;lat;lon;timestamp;pressure;altitude;pressure_sealevel;temperature;humidity
79463;BME280;68931;47.286;18.756;2023-08-31T00:00:14;99967.59;;;14.32;93.55
79463;BME280;68931;47.286;18.756;2023-08-31T00:00:52;99968.88;;;14.38;93.64
79463;BME280;68931;47.286;18.756;2023-08-31T00:01:27;99959.22;;;14.39;93.39
79463;BME280;68931;47.286;18.756;2023-08-31T00:02:00;99963.63;;;14.38;93.58
79463;BME280;68931;47.286;18.756;2023-08-31T00:02:33;99969.25;;;14.45;93.58
79463;BME280;68931;47.286;18.756;2023-08-31T00:03:05;99954.84;;;14.38;93.36
79463;BME280;68931;47.286;18.756;2023-08-31T00:03:37;99971.78;;;14.46;93.54
79463;BME280;68931;47.286;18.756;2023-08-31T00:04:10;99971.66;;;14.48;93.31
79463;BME280;68931;47.286;18.756;2023-08-31T00:04:46;99969.00;;;14.48;92.72
79463;BME280;68931;47.286;18.756;2023-08-31T00:05:18;99955.81;;;14.37;92.71
79463;BME280;68931;47.286;18.756;2023-08-31T00:05:50;99963.00;;;14.46;92.41
79463;BME280;68931;47.286;18.756;2023-08-31T00:06:23;99962.16;;;14.45;92.82
79463;BME280;68931;47.286;18.756;2023-08-31T00:06:55;99961.09;;;14.48;92.66
79463;BME280;68931;47.286;18.756;2023-08-31T00:07:28;99969.00;;;14.48;92.88
79463;BME280;68931;47.286;18.756;2023-08-31T00:08:00;99964.56;;;14.48;92.85
79463;BME280;68931;47.286;18.756;2023-08-31T00:08:32;99968.50;;;14.54;93.01
79463;BME280;68931;47.286;18.756;2023-08-31T00:09:04;99948.41;;;14.42;93.02
79463;BME280;68931;47.286;18.756;2023-08-31T00:09:40;99971.84;;;14.56;93.11
79463;BME280;68931;47.286;18.756;2023-08-31T00:10:12;99961.53;;;14.53;93.02
79463;BME280;68931;47.286;18.756;2023-08-31T00:10:44;99966.69;;;14.54;92.57
79463;BME280;68931;47.286;18.756;2023-08-31T00:11:16;99970.19;;;14.55;92.52
79463;BME280;68931;47.286;18.756;2023-08-31T00:11:49;99962.50;;;14.52;92.32
79463;BME280;68931;47.286;18.756;2023-08-31T00:12:21;99969.81;;;14.59;92.48
79463;BME280;68931;47.286;18.756;2023-08-31T00:12:54;99968.00;;;14.60;92.26
79463;BME280;68931;47.286;18.756;2023-08-31T00:13:26;99941.91;;;14.46;92.45
79463;BME280;68931;47.286;18.756;2023-08-31T00:13:58;99977.47;;;14.62;92.22
79463;BME280;68931;47.286;18.756;2023-08-31T00:14:30;99961.06;;;14.59;92.05
79463;BME280;68931;47.286;18.756;2023-08-31T00:15:04;99951.56;;;14.56;91.95
79463;BME280;68931;47.286;18.756;2023-08-31T00:15:36;99968.69;;;14.62;91.95
79463;BME280;68931;47.286;18.756;2023-08-31T00:16:08;99963.81;;;14.57;91.88
79463;BME280;68931;47.286;18.756;2023-08-31T00:16:44;99972.56;;;14.58;92.19
79463;BME280;68931;47.286;18.756;2023-08-31T00:17:19;99970.50;;;14.61;91.93
79463;BME280;68931;47.286;18.756;2023-08-31T00:17:51;99969.94;;;14.58;91.83
79463;BME280;68931;47.286;18.756;2023-08-31T00:18:23;99923.59;;;14.33;91.70
79463;BME280;68931;47.286;18.756;2023-08-31T00:18:58;99971.22;;;14.63;91.57
79463;BME280;68931;47.286;18.756;2023-08-31T00:19:30;99968.81;;;14.60;91.59
79463;BME280;68931;47.286;18.756;2023-08-31T00:20:02;99975.66;;;14.63;91.84
79463;BME280;68931;47.286;18.756;2023-08-31T00:20:37;99970.50;;;14.61;91.75
79463;BME280;68931;47.286;18.756;2023-08-31T00:21:09;99961.28;;;14.56;91.78
79463;BME280;68931;47.286;18.756;2023-08-31T00:21:42;99973.84;;;14.63;91.88
79463;BME280;68931;47.286;18.756;2023-08-31T00:22:14;99972.19;;;14.62;91.58
79463;BME280;68931;47.286;18.756;2023-08-31T00:22:46;99966.06;;;14.62;91.55
79463;BME280;68931;47.286;18.756;2023-08-31T00:23:21;99975.41;;;14.66;91.57
79463;BME280;68931;47.286;18.756;2023-08-31T00:23:53;99975.53;;;14.64;91.77
79463;BME280;68931;47.286;18.756;2023-08-31T00:24:26;99962.84;;;14.58;91.84
79463;BME280;68931;47.286;18.756;2023-08-31T00:25:04;99972.19;;;14.62;91.50
79463;BME280;68931;47.286;18.756;2023-08-31T00:25:37;99974.81;;;14.62;91.43
79463;BME280;68931;47.286;18.756;2023-08-31T00:26:09;99973.75;;;14.65;91.93
79463;BME280;68931;47.286;18.756;2023-08-31T00:26:41;99973.03;;;14.63;91.24
79463;BME280;68931;47.286;18.756;2023-08-31T00:27:14;99973.97;;;14.62;91.25
79463;BME280;68931;47.286;18.756;2023-08-31T00:27:49;99961.06;;;14.59;91.81
79463;BME280;68931;47.286;18.756;2023-08-31T00:28:24;99977.09;;;14.67;91.59
79463;BME280;68931;47.286;18.756;2023-08-31T00:28:57;99962.00;;;14.58;91.60
79463;BME280;68931;47.286;18.756;2023-08-31T00:29:30;99972.19;;;14.62;91.50
79463;BME280;68931;47.286;18.756;2023-08-31T00:30:04;99980.44;;;14.69;91.87
79463;BME280;68931;47.286;18.756;2023-08-31T00:30:38;99969.53;;;14.62;91.43
79463;BME280;68931;47.286;18.756;2023-08-31T00:31:15;99973.34;;;14.69;91.45
79463;BME280;68931;47.286;18.756;2023-08-31T00:31:47;99982.81;;;14.72;91.34
79463;BME280;68931;47.286;18.756;2023-08-31T00:32:20;99985.47;;;14.72;91.20
79463;BME280;68931;47.286;18.756;2023-08-31T00:32:55;99976.69;;;14.72;91.48
79463;BME280;68931;47.286;18.756;2023-08-31T00:33:27;99977.09;;;14.67;91.43
79463;BME280;68931;47.286;18.756;2023-08-31T00:33:59;99975.28;;;14.67;91.06
79463;BME280;68931;47.286;18.756;2023-08-31T00:34:36;99979.47;;;14.70;91.20
79463;BME280;68931;47.286;18.756;2023-08-31T00:35:17;99988.09;;;14.72;91.19
79463;BME280;68931;47.286;18.756;2023-08-31T00:35:49;99965.81;;;14.65;91.77
79463;BME280;68931;47.286;18.756;2023-08-31T00:36:21;99977.78;;;14.69;92.06
79463;BME280;68931;47.286;18.756;2023-08-31T00:36:53;99981.16;;;14.71;91.49
79463;BME280;68931;47.286;18.756;2023-08-31T00:37:25;99969.88;;;14.69;91.47
79463;BME280;68931;47.286;18.756;2023-08-31T00:37:58;99983.66;;;14.73;91.36
79463;BME280;68931;47.286;18.756;2023-08-31T00:38:30;99965.50;;;14.58;91.32
79463;BME280;68931;47.286;18.756;2023-08-31T00:39:03;99979.03;;;14.65;91.19
79463;BME280;68931;47.286;18.756;2023-08-31T00:39:42;99967.84;;;14.61;91.45
79463;BME280;68931;47.286;18.756;2023-08-31T00:40:16;99976.25;;;14.66;91.33
79463;BME280;68931;47.286;18.756;2023-08-31T00:40:48;99981.41;;;14.68;91.27
79463;BME280;68931;47.286;18.756;2023-08-31T00:41:22;99984.75;;;14.70;91.20
79463;BME280;68931;47.286;18.756;2023-08-31T00:41:54;99980.44;;;14.69;91.06
79463;BME280;68931;47.286;18.756;2023-08-31T00:42:29;99984.06;;;14.68;91.41
79463;BME280;68931;47.286;18.756;2023-08-31T00:43:04;99987.53;;;14.68;91.51
79463;BME280;68931;47.286;18.756;2023-08-31T00:43:41;99974.94;;;14.61;91.51
79463;BME280;68931;47.286;18.756;2023-08-31T00:44:14;99983.06;;;14.69;91.50
79463;BME280;68931;47.286;18.756;2023-08-31T00:44:46;99984.19;;;14.66;91.55
79463;BME280;68931;47.286;18.756;2023-08-31T00:45:18;99972.31;;;14.61;91.12
79463;BME280;68931;47.286;18.756;2023-08-31T00:45:54;99990.88;;;14.71;91.28
79463;BME280;68931;47.286;18.756;2023-08-31T00:46:40;99988.34;;;14.69;91.47
79463;BME280;68931;47.286;18.756;2023-08-31T00:47:19;99992.66;;;14.70;91.04
79463;BME280;68931;47.286;18.756;2023-08-31T00:47:51;99988.22;;;14.71;91.00
79463;BME280;68931;47.286;18.756;2023-08-31T00:48:24;99982.94;;;14.71;91.58
79463;BME280;68931;47.286;18.756;2023-08-31T00:48:56;99984.06;;;14.68;90.87
79463;BME280;68931;47.286;18.756;2023-08-31T00:49:29;99988.22;;;14.71;91.27
79463;BME280;68931;47.286;18.756;2023-08-31T00:50:01;99989.19;;;14.69;91.45
79463;BME280;68931;47.286;18.756;2023-08-31T00:50:34;99988.09;;;14.72;91.54
79463;BME280;68931;47.286;18.756;2023-08-31T00:51:06;99990.75;;;14.72;91.55
79463;BME280;68931;47.286;18.756;2023-08-31T00:51:39;99988.09;;;14.72;91.31
79463;BME280;68931;47.286;18.756;2023-08-31T00:52:12;99968.56;;;14.63;91.34
79463;BME280;68931;47.286;18.756;2023-08-31T00:52:44;99973.03;;;14.63;91.61
79463;BME280;68931;47.286;18.756;2023-08-31T00:53:19;99976.97;;;14.68;91.68
79463;BME280;68931;47.286;18.756;2023-08-31T00:53:52;99980.31;;;14.71;91.50
79463;BME280;68931;47.286;18.756;2023-08-31T00:54:26;99987.16;;;14.73;91.69
79463;BME280;68931;47.286;18.756;2023-08-31T00:54:58;99998.31;;;14.77;91.82
79463;BME280;68931;47.286;18.756;2023-08-31T00:55:32;100000.78;;;14.78;91.99
79463;BME280;68931;47.286;18.756;2023-08-31T00:56:04;99984.75;;;14.70;91.81
79463;BME280;68931;47.286;18.756;2023-08-31T00:56:36;99988.09;;;14.72;91.62
79463;BME280;68931;47.286;18.756;2023-08-31T00:57:08;99983.41;;;14.76;91.91
79463;BME280;68931;47.286;18.756;2023-08-31T00:57:44;99998.63;;;14.83;91.71
79463;BME280;68931;47.286;18.756;2023-08-31T00:58:16;99989.63;;;14.86;92.02
79463;BME280;68931;47.286;18.756;2023-08-31T00:58:52;99995.03;;;14.84;91.62
79463;BME280;68931;47.286;18.756;2023-08-31T00:59:29;99989.03;;;14.82;91.62
79463;BME280;68931;47.286;18.756;2023-08-31T01:00:05;99979.09;;;14.75;91.51
79463;BME280;68931;47.286;18.756;2023-08-31T01:02:05;100002.94;;;14.84;91.67
79463;BME280;68931;47.286;18.756;2023-08-31T01:04:25;99998.50;;;14.85;91.29
79463;BME280;68931;47.286;18.756;2023-08-31T01:06:18;99999.59;;;14.82;90.80
79463;BME280;68931;47.286;18.756;2023-08-31T01:08:22;99998.88;;;14.80;91.34
79463;BME280;68931;47.286;18.756;2023-08-31T01:09:19;99996.69;;;14.85;91.52
79463;BME280;68931;47.286;18.756;2023-08-31T01:10:28;99984.81;;;14.80;92.06
79463;BME280;68931;47.286;18.756;2023-08-31T01:11:19;99994.31;;;14.82;92.20
79463;BME280;68931;47.286;18.756;2023-08-31T01:12:04;99989.25;;;14.79;92.05
79463;BME280;68931;47.286;18.756;2023-08-31T01:12:46;99992.63;;;14.81;91.93
79463;BME280;68931;47.286;18.756;2023-08-31T01:13:23;99989.25;;;14.79;91.85
79463;BME280;68931;47.286;18.756;2023-08-31T01:14:02;99994.31;;;14.82;91.38
79463;BME280;68931;47.286;18.756;2023-08-31T01:15:04;99989.97;;;14.81;92.58
79463;BME280;68931;47.286;18.756;2023-08-31T01:15:46;99990.81;;;14.82;92.32
79463;BME280;68931;47.286;18.756;2023-08-31T01:16:24;99993.97;;;14.76;92.16
79463;BME280;68931;47.286;18.756;2023-08-31T01:16:58;99991.72;;;14.71;92.08
79463;BME280;68931;47.286;18.756;2023-08-31T01:17:32;100002.47;;;14.79;91.94
79463;BME280;68931;47.286;18.756;2023-08-31T01:18:10;99993.72;;;14.79;92.14
79463;BME280;68931;47.286;18.756;2023-08-31T01:18:47;99960.78;;;14.62;91.93
79463;BME280;68931;47.286;18.756;2023-08-31T01:21:08;99977.53;;;14.72;91.74
79463;BME280;68931;47.286;18.756;2023-08-31T01:21:32;99972.50;;;14.69;92.24
79463;BME280;68931;47.286;18.756;2023-08-31T01:22:11;99998.63;;;14.83;92.10
79463;BME280;68931;47.286;18.756;2023-08-31T01:22:55;99996.81;;;14.84;91.93
79463;BME280;68931;47.286;18.756;2023-08-31T01:23:50;99986.50;;;14.81;92.38
79463;BME280;68931;47.286;18.756;2023-08-31T01:24:23;99984.94;;;14.78;92.38
79463;BME280;68931;47.286;18.756;2023-08-31T01:24:59;99988.94;;;14.73;92.09
79463;BME280;68931;47.286;18.756;2023-08-31T01:25:41;99985.09;;;14.77;92.12
79463;BME280;68931;47.286;18.756;2023-08-31T01:26:17;99986.63;;;14.79;91.77
79463;BME280;68931;47.286;18.756;2023-08-31T01:26:51;99990.69;;;14.83;91.99
79463;BME280;68931;47.286;18.756;2023-08-31T01:27:24;99978.69;;;14.79;91.79
79463;BME280;68931;47.286;18.756;2023-08-31T01:27:56;99980.50;;;14.79;91.69
79463;BME280;68931;47.286;18.756;2023-08-31T01:28:35;99989.63;;;14.86;91.75
79463;BME280;68931;47.286;18.756;2023-08-31T01:29:13;99994.75;;;14.87;91.97
79463;BME280;68931;47.286;18.756;2023-08-31T01:29:45;99978.47;;;14.82;92.26
79463;BME280;68931;47.286;18.756;2023-08-31T01:30:17;99992.94;;;14.88;91.43
79463;BME280;68931;47.286;18.756;2023-08-31T01:30:51;99992.94;;;14.88;91.30
79463;BME280;68931;47.286;18.756;2023-08-31T01:31:23;99997.13;;;14.90;91.34
79463;BME280;68931;47.286;18.756;2023-08-31T01:31:56;99994.63;;;14.89;91.44
79463;BME280;68931;47.286;18.756;2023-08-31T01:32:28;99987.81;;;14.86;91.34
79463;BME280;68931;47.286;18.756;2023-08-31T01:33:00;99991.63;;;14.93;91.45
79463;BME280;68931;47.286;18.756;2023-08-31T01:33:32;99989.34;;;14.89;91.82
79463;BME280;68931;47.286;18.756;2023-08-31T01:34:04;99999.66;;;14.92;91.68
79463;BME280;68931;47.286;18.756;2023-08-31T01:34:37;99979.16;;;14.84;91.49
79463;BME280;68931;47.286;18.756;2023-08-31T01:35:09;99991.03;;;14.90;91.56
79463;BME280;68931;47.286;18.756;2023-08-31T01:35:46;99992.81;;;14.89;91.57
79463;BME280;68931;47.286;18.756;2023-08-31T01:36:28;99984.06;;;14.89;91.51
79463;BME280;68931;47.286;18.756;2023-08-31T01:37:08;99998.69;;;14.93;91.43
79463;BME280;68931;47.286;18.756;2023-08-31T01:37:47;99994.25;;;14.93;91.90
79463;BME280;68931;47.286;18.756;2023-08-31T01:38:25;99992.56;;;14.92;91.79
79463;BME280;68931;47.286;18.756;2023-08-31T01:39:18;99993.53;;;14.91;91.39
79463;BME280;68931;47.286;18.756;2023-08-31T01:39:56;99992.81;;;14.89;91.56
79463;BME280;68931;47.286;18.756;2023-08-31T01:40:38;99997.34;;;14.98;91.99
79463;BME280;68931;47.286;18.756;2023-08-31T01:41:14;99994.94;;;14.95;91.59
79463;BME280;68931;47.286;18.756;2023-08-31T01:41:56;99987.41;;;14.91;90.97
79463;BME280;68931;47.286;18.756;2023-08-31T01:42:31;100001.06;;;14.96;90.84
79463;BME280;68931;47.286;18.756;2023-08-31T01:43:05;100001.22;;;14.94;91.15
79463;BME280;68931;47.286;18.756;2023-08-31T01:43:40;100000.50;;;14.92;90.72
79463;BME280;68931;47.286;18.756;2023-08-31T01:44:15;99982.78;;;14.83;90.58
79463;BME280;68931;47.286;18.756;2023-08-31T01:44:48;99997.75;;;14.94;90.71
79463;BME280;68931;47.286;18.756;2023-08-31T01:45:22;99963.50;;;14.72;90.52
79463;BME280;68931;47.286;18.756;2023-08-31T01:45:58;100002.75;;;14.97;90.31
79463;BME280;68931;47.286;18.756;2023-08-31T01:46:30;100003.59;;;14.97;90.85
79463;BME280;68931;47.286;18.756;2023-08-31T01:47:04;100004.41;;;14.98;90.67
79463;BME280;68931;47.286;18.756;2023-08-31T01:47:38;99998.81;;;14.91;90.53
79463;BME280;68931;47.286;18.756;2023-08-31T01:48:10;99992.94;;;14.88;90.25
79463;BME280;68931;47.286;18.756;2023-08-31T01:48:43;100009.00;;;14.96;90.53
79463;BME280;68931;47.286;18.756;2023-08-31T01:49:15;100003.13;;;14.92;90.64
79463;BME280;68931;47.286;18.756;2023-08-31T01:49:47;100006.34;;;14.96;90.56
79463;BME280;68931;47.286;18.756;2023-08-31T01:50:19;100003.69;;;14.96;90.31
79463;BME280;68931;47.286;18.756;2023-08-31T01:50:51;99999.91;;;14.89;90.33
79463;BME280;68931;47.286;18.756;2023-08-31T01:51:26;100001.06;;;14.96;90.13
79463;BME280;68931;47.286;18.756;2023-08-31T01:51:58;99992.94;;;14.88;90.29
79463;BME280;68931;47.286;18.756;2023-08-31T01:52:30;100001.34;;;14.93;90.19
79463;BME280;68931;47.286;18.756;2023-08-31T01:53:02;100003.47;;;14.99;90.38
79463;BME280;68931;47.286;18.756;2023-08-31T01:53:34;99989.94;;;14.92;90.10
79463;BME280;68931;47.286;18.756;2023-08-31T01:54:06;100001.91;;;14.96;90.15
79463;BME280;68931;47.286;18.756;2023-08-31T01:54:38;99995.94;;;14.94;90.25
79463;BME280;68931;47.286;18.756;2023-08-31T01:55:10;100008.88;;;14.97;90.39
79463;BME280;68931;47.286;18.756;2023-08-31T01:55:45;99990.78;;;14.93;89.96
79463;BME280;68931;47.286;18.756;2023-08-31T01:56:17;99993.78;;;14.88;90.48
79463;BME280;68931;47.286;18.756;2023-08-31T01:56:49;99970.09;;;14.77;90.11
79463;BME280;68931;47.286;18.756;2023-08-31T01:57:21;100002.63;;;14.98;89.82
79463;BME280;68931;47.286;18.756;2023-08-31T01:57:53;99998.81;;;14.91;90.23
79463;BME280;68931;47.286;18.756;2023-08-31T01:58:25;99994.63;;;14.89;90.39
79463;BME280;68931;47.286;18.756;2023-08-31T01:58:57;100008.88;;;14.97;90.43
79463;BME280;68931;47.286;18.756;2023-08-31T01:59:29;100003.03;;;14.94;90.41
79463;BME280;68931;47.286;18.756;2023-08-31T02:00:01;99997.59;;;14.95;90.37
79463;BME280;68931;47.286;18.756;2023-08-31T02:00:33;99997.13;;;14.90;90.41
79463;BME280;68931;47.286;18.756;2023-08-31T02:01:06;100002.06;;;14.95;90.56
79463;BME280;68931;47.286;18.756;2023-08-31T02:01:38;100006.22;;;14.97;90.80
79463;BME280;68931;47.286;18.756;2023-08-31T02:02:10;99998.56;;;14.94;90.78
79463;BME280;68931;47.286;18.756;2023-08-31T02:02:44;100001.47;;;14.91;90.63
79463;BME280;68931;47.286;18.756;2023-08-31T02:03:16;100006.34;;;14.96;90.46
79463;BME280;68931;47.286;18.756;2023-08-31T02:03:48;100005.50;;;14.95;90.25
79463;BME280;68931;47.286;18.756;2023-08-31T02:04:20;100007.19;;;14.96;90.33
79463;BME280;68931;47.286;18.756;2023-08-31T02:04:52;100005.38;;;14.97;90.08
79463;BME280;68931;47.286;18.756;2023-08-31T02:05:27;100004.69;;;14.95;90.38
79463;BME280;68931;47.286;18.756;2023-08-31T02:05:59;100007.06;;;14.98;90.27
79463;BME280;68931;47.286;18.756;2023-08-31T02:06:31;99991.41;;;14.85;90.79
79463;BME280;68931;47.286;18.756;2023-08-31T02:07:03;99993.66;;;14.90;90.44
79463;BME280;68931;47.286;18.756;2023-08-31T02:07:35;99984.06;;;14.89;90.35
79463;BME280;68931;47.286;18.756;2023-08-31T02:08:07;100015.81;;;14.98;90.15
79463;BME280;68931;47.286;18.756;2023-08-31T02:08:42;100010.78;;;14.95;90.38
79463;BME280;68931;47.286;18.756;2023-08-31T02:09:16;100006.63;;;14.93;90.41
79463;BME280;68931;47.286;18.756;2023-08-31T02:09:48;100003.50;;;14.88;90.65
79463;BME280;68931;47.286;18.756;2023-08-31T02:10:20;100001.47;;;14.91;90.90
79463;BME280;68931;47.286;18.756;2023-08-31T02:10:52;100011.06;;;14.92;90.42
79463;BME280;68931;47.286;18.756;2023-08-31T02:11:26;99997.38;;;14.87;90.51
79463;BME280;68931;47.286;18.756;2023-08-31T02:11:58;100002.53;;;14.89;90.89
79463;BME280;68931;47.286;18.756;2023-08-31T02:12:30;100010.22;;;14.92;90.96
79463;BME280;68931;47.286;18.756;2023-08-31T02:13:02;100016.06;;;14.95;91.11
79463;BME280;68931;47.286;18.756;2023-08-31T02:13:34;100011.91;;;14.93;90.79
79463;BME280;68931;47.286;18.756;2023-08-31T02:14:06;100005.78;;;14.92;90.65
79463;BME280;68931;47.286;18.756;2023-08-31T02:14:39;100011.78;;;14.94;90.49
79463;BME280;68931;47.286;18.756;2023-08-31T02:15:11;100015.94;;;14.97;90.54
79463;BME280;68931;47.286;18.756;2023-08-31T02:15:43;100012.63;;;14.95;90.22
79463;BME280;68931;47.286;18.756;2023-08-31T02:16:15;100020.53;;;14.95;90.86
79463;BME280;68931;47.286;18.756;2023-08-31T02:16:47;99999.34;;;14.85;90.69
79463;BME280;68931;47.286;18.756;2023-08-31T02:17:19;100013.84;;;14.91;90.61
79463;BME280;68931;47.286;18.756;2023-08-31T02:17:52;100017.91;;;14.95;90.68
79463;BME280;68931;47.286;18.756;2023-08-31T02:18:24;100024.16;;;14.94;90.53
79463;BME280;68931;47.286;18.756;2023-08-31T02:18:57;100019.13;;;14.91;90.67
79463;BME280;68931;47.286;18.756;2023-08-31T02:19:29;99982.09;;;14.70;90.63
79463;BME280;68931;47.286;18.756;2023-08-31T02:20:01;100010.22;;;14.92;90.40
79463;BME280;68931;47.286;18.756;2023-08-31T02:20:36;100016.59;;;14.89;90.62
79463;BME280;68931;47.286;18.756;2023-08-31T02:21:08;100005.19;;;14.89;90.56
79463;BME280;68931;47.286;18.756;2023-08-31T02:21:40;100014.44;;;14.94;90.89
79463;BME280;68931;47.286;18.756;2023-08-31T02:22:12;100016.59;;;14.89;90.46
79463;BME280;68931;47.286;18.756;2023-08-31T02:22:44;100010.22;;;14.92;90.50
79463;BME280;68931;47.286;18.756;2023-08-31T02:23:15;100007.94;;;14.87;90.34
79463;BME280;68931;47.286;18.756;2023-08-31T02:23:47;100018.28;;;14.90;90.12
79463;BME280;68931;47.286;18.756;2023-08-31T02:24:19;100019.94;;;14.91;90.46
79463;BME280;68931;47.286;18.756;2023-08-31T02:24:51;100023.44;;;14.92;90.44
79463;BME280;68931;47.286;18.756;2023-08-31T02:25:24;100013.94;;;14.89;90.23
79463;BME280;68931;47.286;18.756;2023-08-31T02:25:59;100016.34;;;14.92;90.48
79463;BME280;68931;47.286;18.756;2023-08-31T02:26:31;100014.44;;;14.94;90.46
79463;BME280;68931;47.286;18.756;2023-08-31T02:27:03;100013.00;;;14.90;90.56
79463;BME280;68931;47.286;18.756;2023-08-31T02:27:35;100027.47;;;14.96;90.08
79463;BME280;68931;47.286;18.756;2023-08-31T02:28:07;100016.88;;;14.86;90.34
79463;BME280;68931;47.286;18.756;2023-08-31T02:28:45;100006.53;;;14.83;90.22
79463;BME280;68931;47.286;18.756;2023-08-31T02:29:17;100019.22;;;14.89;90.29
79463;BME280;68931;47.286;18.756;2023-08-31T02:29:49;100023.19;;;14.95;90.30
79463;BME280;68931;47.286;18.756;2023-08-31T02:30:21;100021.75;;;14.91;90.23
79463;BME280;68931;47.286;18.756;2023-08-31T02:31:02;100022.34;;;14.94;90.30
79463;BME280;68931;47.286;18.756;2023-08-31T02:31:34;100019.72;;;14.94;90.27
79463;BME280;68931;47.286;18.756;2023-08-31T02:32:06;100023.31;;;14.93;90.48
79463;BME280;68931;47.286;18.756;2023-08-31T02:32:39;100020.78;;;14.92;90.26
79463;BME280;68931;47.286;18.756;2023-08-31T02:33:11;100024.00;;;14.95;90.15
79463;BME280;68931;47.286;18.756;2023-08-31T02:33:43;100015.25;;;14.95;90.05
79463;BME280;68931;47.286;18.756;2023-08-31T02:34:14;100013.84;;;14.91;90.30
79463;BME280;68931;47.286;18.756;2023-08-31T02:34:46;100015.25;;;14.95;90.34
79463;BME280;68931;47.286;18.756;2023-08-31T02:35:18;100009.63;;;14.88;90.50
79463;BME280;68931;47.286;18.756;2023-08-31T02:35:50;100018.59;;;14.97;90.76
79463;BME280;68931;47.286;18.756;2023-08-31T02:36:27;100010.59;;;14.87;90.88
79463;BME280;68931;47.286;18.756;2023-08-31T02:37:02;100025.00;;;14.94;90.59
79463;BME280;68931;47.286;18.756;2023-08-31T02:37:34;100005.81;;;14.81;90.45
79463;BME280;68931;47.286;18.756;2023-08-31T02:38:08;100018.28;;;14.90;90.57
79463;BME280;68931;47.286;18.756;2023-08-31T02:38:40;100023.31;;;14.93;90.73
79463;BME280;68931;47.286;18.756;2023-08-31T02:39:12;100012.16;;;14.90;90.86
79463;BME280;68931;47.286;18.756;2023-08-31T02:39:44;100025.00;;;14.94;91.17
79463;BME280;68931;47.286;18.756;2023-08-31T02:40:19;100012.28;;;14.88;90.93
79463;BME280;68931;47.286;18.756;2023-08-31T02:40:55;100022.59;;;14.91;90.95
79463;BME280;68931;47.286;18.756;2023-08-31T02:41:27;100021.63;;;14.92;90.93
79463;BME280;68931;47.286;18.756;2023-08-31T02:41:59;100020.91;;;14.90;90.83
79463;BME280;68931;47.286;18.756;2023-08-31T02:42:31;100016.47;;;14.91;90.59
79463;BME280;68931;47.286;18.756;2023-08-31T02:43:03;100022.59;;;14.91;90.72
79463;BME280;68931;47.286;18.756;2023-08-31T02:43:39;100013.22;;;14.87;90.84
79463;BME280;68931;47.286;18.756;2023-08-31T02:44:11;100003.19;;;14.81;90.86
79463;BME280;68931;47.286;18.756;2023-08-31T02:44:43;100011.44;;;14.88;90.73
79463;BME280;68931;47.286;18.756;2023-08-31T02:45:18;100007.38;;;14.84;91.18
79463;BME280;68931;47.286;18.756;2023-08-31T02:45:50;100011.72;;;14.85;91.05
79463;BME280;68931;47.286;18.756;2023-08-31T02:46:22;100019.22;;;14.89;90.74
79463;BME280;68931;47.286;18.756;2023-08-31T02:46:54;99999.00;;;14.79;90.81
79463;BME280;68931;47.286;18.756;2023-08-31T02:47:27;99997.66;;;14.84;91.09
79463;BME280;68931;47.286;18.756;2023-08-31T02:47:59;99999.34;;;14.85;90.63
79463;BME280;68931;47.286;18.756;2023-08-31T02:48:32;99998.03;;;14.80;90.90
79463;BME280;68931;47.286;18.756;2023-08-31T02:49:05;100014.22;;;14.86;91.11
79463;BME280;68931;47.286;18.756;2023-08-31T02:49:37;100009.91;;;14.85;91.02
79463;BME280;68931;47.286;18.756;2023-08-31T02:50:08;100003.19;;;14.81;90.75
79463;BME280;68931;47.286;18.756;2023-08-31T02:50:40;100013.38;;;14.86;91.08
79463;BME280;68931;47.286;18.756;2023-08-31T02:51:13;100006.44;;;14.85;90.93
79463;BME280;68931;47.286;18.756;2023-08-31T02:51:46;100011.22;;;14.80;90.94
79463;BME280;68931;47.286;18.756;2023-08-31T02:52:23;100014.59;;;14.82;90.97
79463;BME280;68931;47.286;18.756;2023-08-31T02:52:55;100000.22;;;14.75;90.83
79463;BME280;68931;47.286;18.756;2023-08-31T02:53:27;100003.44;;;14.78;91.18
79463;BME280;68931;47.286;18.756;2023-08-31T02:53:59;100017.34;;;14.80;91.15
79463;BME280;68931;47.286;18.756;2023-08-31T02:54:32;100002.03;;;14.74;91.22
79463;BME280;68931;47.286;18.756;2023-08-31T02:55:04;100002.88;;;14.75;91.00
79463;BME280;68931;47.286;18.756;2023-08-31T02:55:39;100010.41;;;14.79;90.68
79463;BME280;68931;47.286;18.756;2023-08-31T02:56:13;100011.34;;;14.78;90.62
79463;BME280;68931;47.286;18.756;2023-08-31T02:56:45;99977.72;;;14.59;90.53
79463;BME280;68931;47.286;18.756;2023-08-31T02:57:18;100019.03;;;14.81;90.64
79463;BME280;68931;47.286;18.756;2023-08-31T02:57:51;100010.16;;;14.82;90.41
79463;BME280;68931;47.286;18.756;2023-08-31T02:58:23;99997.72;;;14.73;90.50
79463;BME280;68931;47.286;18.756;2023-08-31T02:58:56;100016.38;;;14.81;90.58
79463;BME280;68931;47.286;18.756;2023-08-31T02:59:28;100012.06;;;14.80;90.47
79463;BME280;68931;47.286;18.756;2023-08-31T03:00:00;100015.78;;;14.78;90.89
79463;BME280;68931;47.286;18.756;2023-08-31T03:00:32;100023.47;;;14.81;90.58
79463;BME280;68931;47.286;18.756;2023-08-31T03:01:12;100009.72;;;14.77;90.54
79463;BME280;68931;47.286;18.756;2023-08-31T03:01:44;99997.00;;;14.71;90.40
79463;BME280;68931;47.286;18.756;2023-08-31T03:02:18;100013.75;;;14.81;90.46
79463;BME280;68931;47.286;18.756;2023-08-31T03:02:51;100010.41;;;14.79;90.61
79463;BME280;68931;47.286;18.756;2023-08-31T03:03:24;100013.16;;;14.78;90.67
79463;BME280;68931;47.286;18.756;2023-08-31T03:03:56;100005.38;;;14.76;90.88
79463;BME280;68931;47.286;18.756;2023-08-31T03:04:28;100020.84;;;14.81;90.90